sensor_id;sensor_type;location;lat;lon;timestamp;pressure;altitude;pressure_sealevel;temperature;humidity
62928;BME280;51070;52.236;-0.892;2023-11-22T00:01:28;102225.77;;;6.83;100.00
62928;BME280;51070;52.236;-0.892;2023-11-22T00:03:53;102218.71;;;6.81;100.00
62928;BME280;51070;52.236;-0.892;2023-11-22T00:06:19;102215.70;;;6.78;100.00
62928;BME280;51070;52.236;-0.892;2023-11-22T00:08:45;102210.52;;;6.74;100.00
62928;BME280;51070;52.236;-0.892;2023-11-22T00:11:12;102214.02;;;6.73;100.00
62928;BME280;51070;52.236;-0.892;2023-11-22T00:13:39;102207.59;;;6.72;100.00
62928;BME280;51070;52.236;-0.892;2023-11-22T00:16:05;102208.80;;;6.72;100.00
62928;BME280;51070;52.236;-0.892;2023-11-22T00:18:34;102205.73;;;6.72;100.00
62928;BME280;51070;52.236;-0.892;2023-11-22T00:20:59;102200.59;;;6.70;100.00
62928;BME280;51070;52.236;-0.892;2023-11-22T00:23:24;102207.85;;;6.68;100.00
62928;BME280;51070;52.236;-0.892;2023-11-22T00:25:54;102205.39;;;6.67;100.00
62928;BME280;51070;52.236;-0.892;2023-11-22T00:28:19;102200.38;;;6.67;100.00
62928;BME280;51070;52.236;-0.892;2023-11-22T00:30:44;102195.64;;;6.65;100.00
62928;BME280;51070;52.236;-0.892;2023-11-22T00:33:10;102199.72;;;6.67;100.00
62928;BME280;51070;52.236;-0.892;2023-11-22T00:35:35;102203.45;;;6.69;100.00
62928;BME280;51070;52.236;-0.892;2023-11-22T00:38:01;102208.00;;;6.70;100.00
62928;BME280;51070;52.236;-0.892;2023-11-22T00:40:26;102207.23;;;6.74;100.00
62928;BME280;51070;52.236;-0.892;2023-11-22T00:42:52;102201.05;;;6.77;100.00
62928;BME280;51070;52.236;-0.892;2023-11-22T00:45:17;102200.27;;;6.80;100.00
62928;BME280;51070;52.236;-0.892;2023-11-22T00:47:43;102199.91;;;6.82;100.00
62928;BME280;51070;52.236;-0.892;2023-11-22T00:50:09;102210.34;;;6.84;100.00
62928;BME280;51070;52.236;-0.892;2023-11-22T00:52:34;102211.98;;;6.85;100.00
62928;BME280;51070;52.236;-0.892;2023-11-22T00:54:59;102208.77;;;6.86;100.00
62928;BME280;51070;52.236;-0.892;2023-11-22T00:57:25;102204.95;;;6.86;100.00
62928;BME280;51070;52.236;-0.892;2023-11-22T00:59:52;102200.12;;;6.85;100.00
62928;BME280;51070;52.236;-0.892;2023-11-22T01:02:19;102202.34;;;6.88;100.00
62928;BME280;51070;52.236;-0.892;2023-11-22T01:04:44;102200.55;;;6.89;100.00
62928;BME280;51070;52.236;-0.892;2023-11-22T01:07:09;102189.81;;;6.90;100.00
62928;BME280;51070;52.236;-0.892;2023-11-22T01:09:35;102184.33;;;6.93;100.00
62928;BME280;51070;52.236;-0.892;2023-11-22T01:12:00;102183.55;;;6.96;100.00
62928;BME280;51070;52.236;-0.892;2023-11-22T01:14:29;102184.65;;;6.97;100.00
62928;BME280;51070;52.236;-0.892;2023-11-22T01:16:54;102183.34;;;7.00;100.00
62928;BME280;51070;52.236;-0.892;2023-11-22T01:19:20;102189.51;;;7.03;100.00
62928;BME280;51070;52.236;-0.892;2023-11-22T01:21:46;102185.95;;;7.03;100.00
62928;BME280;51070;52.236;-0.892;2023-11-22T01:24:12;102180.79;;;7.03;100.00
62928;BME280;51070;52.236;-0.892;2023-11-22T01:26:37;102181.73;;;7.02;100.00
62928;BME280;51070;52.236;-0.892;2023-11-22T01:29:03;102186.32;;;7.01;100.00
62928;BME280;51070;52.236;-0.892;2023-11-22T01:31:29;102192.85;;;6.99;100.00
62928;BME280;51070;52.236;-0.892;2023-11-22T01:33:55;102196.90;;;6.96;100.00
62928;BME280;51070;52.236;-0.892;2023-11-22T01:36:20;102198.16;;;6.92;100.00
62928;BME280;51070;52.236;-0.892;2023-11-22T01:38:45;102190.53;;;6.88;100.00
62928;BME280;51070;52.236;-0.892;2023-11-22T01:41:11;102186.23;;;6.86;100.00
62928;BME280;51070;52.236;-0.892;2023-11-22T01:43:38;102189.70;;;6.84;100.00
62928;BME280;51070;52.236;-0.892;2023-11-22T01:46:06;102194.88;;;6.82;100.00
62928;BME280;51070;52.236;-0.892;2023-11-22T01:48:31;102200.98;;;6.80;100.00
62928;BME280;51070;52.236;-0.892;2023-11-22T01:50:57;102200.73;;;6.79;100.00
62928;BME280;51070;52.236;-0.892;2023-11-22T01:53:22;102194.11;;;6.78;100.00
62928;BME280;51070;52.236;-0.892;2023-11-22T01:55:48;102186.88;;;6.75;100.00
62928;BME280;51070;52.236;-0.892;2023-11-22T01:58:16;102189.55;;;6.72;100.00
62928;BME280;51070;52.236;-0.892;2023-11-22T02:00:43;102188.85;;;6.69;100.00
62928;BME280;51070;52.236;-0.892;2023-11-22T02:03:10;102186.43;;;6.66;100.00
62928;BME280;51070;52.236;-0.892;2023-11-22T02:05:35;102183.27;;;6.65;100.00
62928;BME280;51070;52.236;-0.892;2023-11-22T02:08:04;102186.48;;;6.65;100.00
62928;BME280;51070;52.236;-0.892;2023-11-22T02:10:29;102182.54;;;6.65;100.00
62928;BME280;51070;52.236;-0.892;2023-11-22T02:12:56;102188.42;;;6.65;100.00
62928;BME280;51070;52.236;-0.892;2023-11-22T02:15:21;102189.73;;;6.67;100.00
62928;BME280;51070;52.236;-0.892;2023-11-22T02:17:46;102183.49;;;6.68;100.00
62928;BME280;51070;52.236;-0.892;2023-11-22T02:20:12;102172.92;;;6.70;100.00
62928;BME280;51070;52.236;-0.892;2023-11-22T02:22:44;102168.11;;;6.72;100.00
62928;BME280;51070;52.236;-0.892;2023-11-22T02:25:09;102167.12;;;6.75;100.00
62928;BME280;51070;52.236;-0.892;2023-11-22T02:27:35;102168.95;;;6.79;100.00
62928;BME280;51070;52.236;-0.892;2023-11-22T02:30:02;102177.89;;;6.82;100.00
62928;BME280;51070;52.236;-0.892;2023-11-22T02:32:30;102176.86;;;6.82;100.00
62928;BME280;51070;52.236;-0.892;2023-11-22T02:34:56;102172.41;;;6.82;100.00
62928;BME280;51070;52.236;-0.892;2023-11-22T02:37:21;102169.94;;;6.84;100.00
62928;BME280;51070;52.236;-0.892;2023-11-22T02:39:58;102170.13;;;6.86;100.00
62928;BME280;51070;52.236;-0.892;2023-11-22T02:42:26;102164.64;;;6.87;100.00
62928;BME280;51070;52.236;-0.892;2023-11-22T02:44:51;102167.39;;;6.89;100.00
62928;BME280;51070;52.236;-0.892;2023-11-22T02:47:16;102172.55;;;6.89;100.00
62928;BME280;51070;52.236;-0.892;2023-11-22T02:49:41;102169.65;;;6.89;100.00
62928;BME280;51070;52.236;-0.892;2023-11-22T02:52:07;102160.86;;;6.89;100.00
62928;BME280;51070;52.236;-0.892;2023-11-22T02:54:32;102161.05;;;6.89;100.00
62928;BME280;51070;52.236;-0.892;2023-11-22T02:56:59;102157.25;;;6.89;100.00
62928;BME280;51070;52.236;-0.892;2023-11-22T02:59:25;102149.52;;;6.89;100.00
62928;BME280;51070;52.236;-0.892;2023-11-22T03:01:50;102154.86;;;6.87;100.00
62928;BME280;51070;52.236;-0.892;2023-11-22T03:04:16;102157.39;;;6.83;100.00
62928;BME280;51070;52.236;-0.892;2023-11-22T03:06:41;102156.77;;;6.80;100.00
62928;BME280;51070;52.236;-0.892;2023-11-22T03:09:06;102164.63;;;6.77;100.00
62928;BME280;51070;52.236;-0.892;2023-11-22T03:11:33;102173.05;;;6.74;100.00
62928;BME280;51070;52.236;-0.892;2023-11-22T03:13:58;102166.98;;;6.71;100.00
62928;BME280;51070;52.236;-0.892;2023-11-22T03:16:24;102162.01;;;6.68;100.00
62928;BME280;51070;52.236;-0.892;2023-11-22T03:18:49;102158.33;;;6.65;100.00
62928;BME280;51070;52.236;-0.892;2023-11-22T03:21:16;102159.94;;;6.61;100.00
62928;BME280;51070;52.236;-0.892;2023-11-22T03:23:42;102164.49;;;6.58;100.00
62928;BME280;51070;52.236;-0.892;2023-11-22T03:26:07;102162.10;;;6.55;100.00
62928;BME280;51070;52.236;-0.892;2023-11-22T03:28:34;102168.87;;;6.54;100.00
62928;BME280;51070;52.236;-0.892;2023-11-22T03:31:00;102178.90;;;6.55;100.00
62928;BME280;51070;52.236;-0.892;2023-11-22T03:33:25;102180.95;;;6.57;100.00
62928;BME280;51070;52.236;-0.892;2023-11-22T03:35:51;102170.47;;;6.59;100.00
62928;BME280;51070;52.236;-0.892;2023-11-22T03:38:16;102169.86;;;6.63;100.00
62928;BME280;51070;52.236;-0.892;2023-11-22T03:40:42;102170.52;;;6.67;100.00
62928;BME280;51070;52.236;-0.892;2023-11-22T03:43:07;102159.17;;;6.69;100.00
62928;BME280;51070;52.236;-0.892;2023-11-22T03:45:35;102157.42;;;6.74;100.00
62928;BME280;51070;52.236;-0.892;2023-11-22T03:48:00;102155.52;;;6.79;100.00
62928;BME280;51070;52.236;-0.892;2023-11-22T03:50:25;102158.15;;;6.82;100.00
62928;BME280;51070;52.236;-0.892;2023-11-22T03:52:51;102159.58;;;6.85;100.00
62928;BME280;51070;52.236;-0.892;2023-11-22T03:55:16;102163.17;;;6.85;100.00
62928;BME280;51070;52.236;-0.892;2023-11-22T03:57:41;102161.76;;;6.84;100.00
62928;BME280;51070;52.236;-0.892;2023-11-22T04:00:07;102157.23;;;6.84;100.00
62928;BME280;51070;52.236;-0.892;2023-11-22T04:02:34;102145.31;;;6.85;100.00
62928;BME280;51070;52.236;-0.892;2023-11-22T04:04:59;102141.85;;;6.87;100.00
62928;BME280;51070;52.236;-0.892;2023-11-22T04:07:25;102144.18;;;6.89;100.00
62928;BME280;51070;52.236;-0.892;2023-11-22T04:09:50;102150.20;;;6.91;100.00
62928;BME280;51070;52.236;-0.892;2023-11-22T04:12:15;102154.80;;;6.91;100.00
62928;BME280;51070;52.236;-0.892;2023-11-22T04:14:40;102154.00;;;6.89;100.00
62928;BME280;51070;52.236;-0.892;2023-11-22T04:17:06;102156.45;;;6.87;100.00
62928;BME280;51070;52.236;-0.892;2023-11-22T04:19:31;102149.88;;;6.84;100.00
62928;BME280;51070;52.236;-0.892;2023-11-22T04:21:56;102148.00;;;6.82;100.00
62928;BME280;51070;52.236;-0.892;2023-11-22T04:24:21;102142.38;;;6.80;100.00
62928;BME280;51070;52.236;-0.892;2023-11-22T04:26:47;102140.63;;;6.74;100.00
62928;BME280;51070;52.236;-0.892;2023-11-22T04:29:12;102147.45;;;6.71;100.00
62928;BME280;51070;52.236;-0.892;2023-11-22T04:31:37;102150.73;;;6.70;100.00
62928;BME280;51070;52.236;-0.892;2023-11-22T04:34:02;102148.48;;;6.69;100.00
62928;BME280;51070;52.236;-0.892;2023-11-22T04:36:28;102150.40;;;6.70;100.00
62928;BME280;51070;52.236;-0.892;2023-11-22T04:38:54;102145.38;;;6.69;100.00
62928;BME280;51070;52.236;-0.892;2023-11-22T04:41:20;102142.55;;;6.68;100.00
62928;BME280;51070;52.236;-0.892;2023-11-22T04:43:45;102141.90;;;6.66;100.00
62928;BME280;51070;52.236;-0.892;2023-11-22T04:46:10;102138.98;;;6.66;100.00
62928;BME280;51070;52.236;-0.892;2023-11-22T04:48:36;102144.90;;;6.65;100.00
62928;BME280;51070;52.236;-0.892;2023-11-22T04:51:03;102151.02;;;6.66;100.00
62928;BME280;51070;52.236;-0.892;2023-11-22T04:53:28;102153.11;;;6.69;100.00
62928;BME280;51070;52.236;-0.892;2023-11-22T04:55:54;102145.98;;;6.70;100.00
62928;BME280;51070;52.236;-0.892;2023-11-22T04:58:19;102141.73;;;6.73;100.00
62928;BME280;51070;52.236;-0.892;2023-11-22T05:00:45;102145.61;;;6.77;100.00
62928;BME280;51070;52.236;-0.892;2023-11-22T05:03:10;102151.90;;;6.81;100.00
62928;BME280;51070;52.236;-0.892;2023-11-22T05:05:36;102155.27;;;6.83;100.00
62928;BME280;51070;52.236;-0.892;2023-11-22T05:08:01;102146.71;;;6.86;100.00
62928;BME280;51070;52.236;-0.892;2023-11-22T05:10:27;102150.80;;;6.90;100.00
62928;BME280;51070;52.236;-0.892;2023-11-22T05:12:53;102155.91;;;6.94;100.00
62928;BME280;51070;52.236;-0.892;2023-11-22T05:15:18;102172.63;;;6.97;100.00
62928;BME280;51070;52.236;-0.892;2023-11-22T05:17:43;102162.41;;;6.99;100.00
62928;BME280;51070;52.236;-0.892;2023-11-22T05:20:08;102149.02;;;6.99;100.00
62928;BME280;51070;52.236;-0.892;2023-11-22T05:22:35;102150.37;;;7.01;100.00
62928;BME280;51070;52.236;-0.892;2023-11-22T05:25:00;102146.00;;;7.00;100.00
62928;BME280;51070;52.236;-0.892;2023-11-22T05:27:25;102140.16;;;7.00;100.00
62928;BME280;51070;52.236;-0.892;2023-11-22T05:29:51;102136.17;;;7.00;100.00
62928;BME280;51070;52.236;-0.892;2023-11-22T05:32:16;102131.39;;;6.95;100.00
62928;BME280;51070;52.236;-0.892;2023-11-22T05:34:42;102129.00;;;6.90;100.00
62928;BME280;51070;52.236;-0.892;2023-11-22T05:37:08;102124.00;;;6.85;100.00
62928;BME280;51070;52.236;-0.892;2023-11-22T05:39:34;102122.12;;;6.80;100.00
62928;BME280;51070;52.236;-0.892;2023-11-22T05:41:59;102122.67;;;6.78;100.00
62928;BME280;51070;52.236;-0.892;2023-11-22T05:44:25;102113.95;;;6.76;100.00
62928;BME280;51070;52.236;-0.892;2023-11-22T05:46:51;102107.52;;;6.76;100.00
62928;BME280;51070;52.236;-0.892;2023-11-22T05:49:17;102095.50;;;6.73;100.00
62928;BME280;51070;52.236;-0.892;2023-11-22T05:51:42;102096.89;;;6.68;100.00
62928;BME280;51070;52.236;-0.892;2023-11-22T05:54:07;102094.49;;;6.66;100.00
62928;BME280;51070;52.236;-0.892;2023-11-22T05:56:32;102087.70;;;6.65;100.00
62928;BME280;51070;52.236;-0.892;2023-11-22T05:58:58;102088.84;;;6.64;100.00
62928;BME280;51070;52.236;-0.892;2023-11-22T06:01:24;102084.14;;;6.63;100.00
62928;BME280;51070;52.236;-0.892;2023-11-22T06:03:51;102082.33;;;6.61;100.00
62928;BME280;51070;52.236;-0.892;2023-11-22T06:06:16;102084.83;;;6.61;100.00
62928;BME280;51070;52.236;-0.892;2023-11-22T06:08:42;102084.84;;;6.58;100.00
62928;BME280;51070;52.236;-0.892;2023-11-22T06:11:07;102088.42;;;6.58;100.00
62928;BME280;51070;52.236;-0.892;2023-11-22T06:13:32;102088.30;;;6.56;100.00
62928;BME280;51070;52.236;-0.892;2023-11-22T06:15:58;102091.44;;;6.55;100.00
62928;BME280;51070;52.236;-0.892;2023-11-22T06:18:23;102096.27;;;6.52;100.00
62928;BME280;51070;52.236;-0.892;2023-11-22T06:20:54;102103.39;;;6.51;100.00
62928;BME280;51070;52.236;-0.892;2023-11-22T06:23:20;102089.88;;;6.52;100.00
62928;BME280;51070;52.236;-0.892;2023-11-22T06:25:45;102081.43;;;6.51;100.00
62928;BME280;51070;52.236;-0.892;2023-11-22T06:28:10;102095.02;;;6.49;100.00
62928;BME280;51070;52.236;-0.892;2023-11-22T06:30:35;102111.45;;;6.51;100.00
62928;BME280;51070;52.236;-0.892;2023-11-22T06:33:01;102116.08;;;6.53;100.00
62928;BME280;51070;52.236;-0.892;2023-11-22T06:35:26;102121.30;;;6.54;100.00
62928;BME280;51070;52.236;-0.892;2023-11-22T06:37:52;102124.85;;;6.56;100.00
62928;BME280;51070;52.236;-0.892;2023-11-22T06:40:17;102129.23;;;6.57;100.00
62928;BME280;51070;52.236;-0.892;2023-11-22T06:42:43;102128.09;;;6.60;100.00
62928;BME280;51070;52.236;-0.892;2023-11-22T06:45:08;102125.21;;;6.63;100.00
62928;BME280;51070;52.236;-0.892;2023-11-22T06:47:38;102115.65;;;6.66;100.00
62928;BME280;51070;52.236;-0.892;2023-11-22T06:50:04;102112.77;;;6.69;100.00
62928;BME280;51070;52.236;-0.892;2023-11-22T06:52:34;102121.00;;;6.72;100.00
62928;BME280;51070;52.236;-0.892;2023-11-22T06:55:00;102120.01;;;6.74;100.00
62928;BME280;51070;52.236;-0.892;2023-11-22T06:57:25;102121.48;;;6.76;100.00
62928;BME280;51070;52.236;-0.892;2023-11-22T06:59:54;102123.18;;;6.78;100.00
62928;BME280;51070;52.236;-0.892;2023-11-22T07:02:19;102121.30;;;6.81;100.00
62928;BME280;51070;52.236;-0.892;2023-11-22T07:04:45;102120.24;;;6.83;100.00
62928;BME280;51070;52.236;-0.892;2023-11-22T07:07:10;102122.40;;;6.84;100.00
62928;BME280;51070;52.236;-0.892;2023-11-22T07:09:36;102126.34;;;6.84;100.00
62928;BME280;51070;52.236;-0.892;2023-11-22T07:12:02;102128.56;;;6.84;100.00
62928;BME280;51070;52.236;-0.892;2023-11-22T07:14:29;102143.17;;;6.82;100.00
62928;BME280;51070;52.236;-0.892;2023-11-22T07:16:54;102142.19;;;6.83;100.00
62928;BME280;51070;52.236;-0.892;2023-11-22T07:19:22;102150.35;;;6.86;100.00
62928;BME280;51070;52.236;-0.892;2023-11-22T07:21:48;102161.87;;;6.89;100.00
62928;BME280;51070;52.236;-0.892;2023-11-22T07:24:13;102169.70;;;6.93;100.00
62928;BME280;51070;52.236;-0.892;2023-11-22T07:26:41;102163.09;;;6.96;100.00
62928;BME280;51070;52.236;-0.892;2023-11-22T07:29:07;102152.59;;;6.98;100.00
62928;BME280;51070;52.236;-0.892;2023-11-22T07:31:32;102146.13;;;7.00;100.00
62928;BME280;51070;52.236;-0.892;2023-11-22T07:33:58;102145.89;;;7.01;100.00
62928;BME280;51070;52.236;-0.892;2023-11-22T07:36:23;102142.84;;;7.02;100.00
62928;BME280;51070;52.236;-0.892;2023-11-22T07:38:49;102142.61;;;7.01;100.00
62928;BME280;51070;52.236;-0.892;2023-11-22T07:41:15;102144.09;;;7.00;100.00
62928;BME280;51070;52.236;-0.892;2023-11-22T07:43:41;102143.71;;;6.99;100.00
62928;BME280;51070;52.236;-0.892;2023-11-22T07:46:07;102143.48;;;7.01;100.00
62928;BME280;51070;52.236;-0.892;2023-11-22T07:48:41;102140.43;;;7.01;100.00
62928;BME280;51070;52.236;-0.892;2023-11-22T07:51:07;102131.23;;;6.98;100.00
62928;BME280;51070;52.236;-0.892;2023-11-22T07:53:32;102111.01;;;6.94;100.00
62928;BME280;51070;52.236;-0.892;2023-11-22T07:55:59;102110.63;;;6.91;100.00
62928;BME280;51070;52.236;-0.892;2023-11-22T07:58:26;102103.69;;;6.90;100.00
62928;BME280;51070;52.236;-0.892;2023-11-22T08:00:51;102098.52;;;6.89;100.00
62928;BME280;51070;52.236;-0.892;2023-11-22T08:03:20;102095.11;;;6.90;100.00
62928;BME280;51070;52.236;-0.892;2023-11-22T08:05:48;102094.73;;;6.89;100.00
62928;BME280;51070;52.236;-0.892;2023-11-22T08:08:14;102098.45;;;6.91;100.00
62928;BME280;51070;52.236;-0.892;2023-11-22T08:10:40;102104.05;;;6.93;100.00
62928;BME280;51070;52.236;-0.892;2023-11-22T08:13:07;102116.84;;;6.96;100.00
62928;BME280;51070;52.236;-0.892;2023-11-22T08:15:32;102114.75;;;7.00;100.00
62928;BME280;51070;52.236;-0.892;2023-11-22T08:17:58;102108.48;;;7.04;100.00
62928;BME280;51070;52.236;-0.892;2023-11-22T08:20:25;102106.56;;;7.09;100.00
62928;BME280;51070;52.236;-0.892;2023-11-22T08:22:50;102115.77;;;7.12;100.00
62928;BME280;51070;52.236;-0.892;2023-11-22T08:25:16;102113.58;;;7.16;100.00
62928;BME280;51070;52.236;-0.892;2023-11-22T08:27:41;102109.43;;;7.21;100.00
62928;BME280;51070;52.236;-0.892;2023-11-22T08:30:09;102110.88;;;7.25;100.00
62928;BME280;51070;52.236;-0.892;2023-11-22T08:32:41;102122.34;;;7.29;100.00
62928;BME280;51070;52.236;-0.892;2023-11-22T08:35:08;102114.00;;;7.32;100.00
62928;BME280;51070;52.236;-0.892;2023-11-22T08:37:33;102109.39;;;7.36;100.00
62928;BME280;51070;52.236;-0.892;2023-11-22T08:40:00;102102.64;;;7.37;100.00
62928;BME280;51070;52.236;-0.892;2023-11-22T08:42:26;102098.23;;;7.38;100.00
62928;BME280;51070;52.236;-0.892;2023-11-22T08:44:51;102094.20;;;7.40;100.00
62928;BME280;51070;52.236;-0.892;2023-11-22T08:47:16;102102.73;;;7.41;100.00
62928;BME280;51070;52.236;-0.892;2023-11-22T08:49:43;102105.20;;;7.45;100.00
62928;BME280;51070;52.236;-0.892;2023-11-22T08:52:08;102101.23;;;7.47;100.00
62928;BME280;51070;52.236;-0.892;2023-11-22T08:54:33;102087.59;;;7.49;100.00
62928;BME280;51070;52.236;-0.892;2023-11-22T08:56:59;102086.02;;;7.51;100.00
62928;BME280;51070;52.236;-0.892;2023-11-22T08:59:25;102087.92;;;7.51;100.00
62928;BME280;51070;52.236;-0.892;2023-11-22T09:01:51;102077.40;;;7.51;100.00
62928;BME280;51070;52.236;-0.892;2023-11-22T09:04:16;102073.12;;;7.51;100.00
62928;BME280;51070;52.236;-0.892;2023-11-22T09:06:43;102068.91;;;7.53;100.00
62928;BME280;51070;52.236;-0.892;2023-11-22T09:09:09;102070.36;;;7.56;100.00
62928;BME280;51070;52.236;-0.892;2023-11-22T09:11:34;102072.94;;;7.61;100.00
62928;BME280;51070;52.236;-0.892;2023-11-22T09:14:00;102070.03;;;7.65;100.00
62928;BME280;51070;52.236;-0.892;2023-11-22T09:16:34;102074.45;;;7.69;100.00
62928;BME280;51070;52.236;-0.892;2023-11-22T09:18:59;102083.17;;;7.73;100.00
62928;BME280;51070;52.236;-0.892;2023-11-22T09:21:26;102079.88;;;7.78;100.00
62928;BME280;51070;52.236;-0.892;2023-11-22T09:23:51;102078.59;;;7.82;100.00
62928;BME280;51070;52.236;-0.892;2023-11-22T09:26:16;102080.68;;;7.85;100.00
62928;BME280;51070;52.236;-0.892;2023-11-22T09:28:41;102079.67;;;7.91;100.00
62928;BME280;51070;52.236;-0.892;2023-11-22T09:31:07;102076.66;;;7.92;100.00
62928;BME280;51070;52.236;-0.892;2023-11-22T09:33:33;102070.66;;;7.92;100.00
62928;BME280;51070;52.236;-0.892;2023-11-22T09:35:58;102080.16;;;7.93;100.00
62928;BME280;51070;52.236;-0.892;2023-11-22T09:38:23;102079.21;;;7.91;100.00
62928;BME280;51070;52.236;-0.892;2023-11-22T09:40:49;102075.16;;;7.90;100.00
62928;BME280;51070;52.236;-0.892;2023-11-22T09:43:14;102081.77;;;7.91;99.96
62928;BME280;51070;52.236;-0.892;2023-11-22T09:45:42;102089.27;;;7.93;100.00
62928;BME280;51070;52.236;-0.892;2023-11-22T09:48:15;102089.45;;;7.95;100.00
62928;BME280;51070;52.236;-0.892;2023-11-22T09:53:09;102086.56;;;7.99;99.40
62928;BME280;51070;52.236;-0.892;2023-11-22T09:55:35;102080.90;;;7.99;99.81
62928;BME280;51070;52.236;-0.892;2023-11-22T09:58:02;102080.88;;;8.01;99.90
62928;BME280;51070;52.236;-0.892;2023-11-22T10:00:28;102071.96;;;8.02;99.58
62928;BME280;51070;52.236;-0.892;2023-11-22T10:02:55;102063.25;;;8.00;99.51
62928;BME280;51070;52.236;-0.892;2023-11-22T10:05:22;102060.91;;;7.99;99.46
62928;BME280;51070;52.236;-0.892;2023-11-22T10:07:47;102061.98;;;7.99;99.80
62928;BME280;51070;52.236;-0.892;2023-11-22T10:10:14;102059.60;;;8.02;99.82
62928;BME280;51070;52.236;-0.892;2023-11-22T10:12:42;102073.73;;;8.11;100.00
62928;BME280;51070;52.236;-0.892;2023-11-22T10:15:11;102088.92;;;8.23;100.00
62928;BME280;51070;52.236;-0.892;2023-11-22T10:17:37;102098.71;;;8.35;99.97
62928;BME280;51070;52.236;-0.892;2023-11-22T10:20:02;102105.03;;;8.45;99.96
62928;BME280;51070;52.236;-0.892;2023-11-22T10:22:28;102116.30;;;8.52;99.72
62928;BME280;51070;52.236;-0.892;2023-11-22T10:24:53;102117.16;;;8.57;99.51
62928;BME280;51070;52.236;-0.892;2023-11-22T10:27:25;102116.45;;;8.60;98.81
62928;BME280;51070;52.236;-0.892;2023-11-22T10:29:51;102115.40;;;8.59;98.78
62928;BME280;51070;52.236;-0.892;2023-11-22T10:32:16;102109.88;;;8.59;98.98
62928;BME280;51070;52.236;-0.892;2023-11-22T10:34:42;102099.73;;;8.60;99.04
62928;BME280;51070;52.236;-0.892;2023-11-22T10:37:07;102100.13;;;8.60;98.86
62928;BME280;51070;52.236;-0.892;2023-11-22T10:39:34;102096.38;;;8.61;98.72
62928;BME280;51070;52.236;-0.892;2023-11-22T10:42:00;102083.20;;;8.63;98.78
62928;BME280;51070;52.236;-0.892;2023-11-22T10:44:27;102075.98;;;8.66;98.62
62928;BME280;51070;52.236;-0.892;2023-11-22T10:46:52;102079.64;;;8.69;98.29
62928;BME280;51070;52.236;-0.892;2023-11-22T10:49:18;102080.46;;;8.74;98.38
62928;BME280;51070;52.236;-0.892;2023-11-22T10:51:44;102075.88;;;8.84;98.26
62928;BME280;51070;52.236;-0.892;2023-11-22T10:54:11;102060.33;;;8.95;97.89
62928;BME280;51070;52.236;-0.892;2023-11-22T10:56:40;102062.16;;;9.05;97.61
62928;BME280;51070;52.236;-0.892;2023-11-22T10:59:12;102058.11;;;9.18;97.69
62928;BME280;51070;52.236;-0.892;2023-11-22T11:01:38;102045.96;;;9.32;96.85
62928;BME280;51070;52.236;-0.892;2023-11-22T11:04:11;102042.48;;;9.43;96.74
62928;BME280;51070;52.236;-0.892;2023-11-22T11:06:42;102039.08;;;9.55;96.71
62928;BME280;51070;52.236;-0.892;2023-11-22T11:09:09;102023.06;;;9.65;95.62
62928;BME280;51070;52.236;-0.892;2023-11-22T11:11:36;102005.75;;;9.74;95.48
62928;BME280;51070;52.236;-0.892;2023-11-22T11:14:01;101996.61;;;9.77;94.27
62928;BME280;51070;52.236;-0.892;2023-11-22T11:16:27;101985.84;;;9.79;94.79
62928;BME280;51070;52.236;-0.892;2023-11-22T11:18:56;101965.23;;;9.84;95.05
62928;BME280;51070;52.236;-0.892;2023-11-22T11:21:21;101951.70;;;9.89;94.40
62928;BME280;51070;52.236;-0.892;2023-11-22T11:23:47;101951.69;;;9.92;93.66
62928;BME280;51070;52.236;-0.892;2023-11-22T11:26:19;101977.88;;;9.97;93.80
62928;BME280;51070;52.236;-0.892;2023-11-22T11:28:48;102001.53;;;10.06;94.10
62928;BME280;51070;52.236;-0.892;2023-11-22T11:31:14;102004.90;;;10.14;93.46
62928;BME280;51070;52.236;-0.892;2023-11-22T11:36:22;101981.59;;;10.21;92.90
62928;BME280;51070;52.236;-0.892;2023-11-22T11:38:48;101972.04;;;10.23;93.36
62928;BME280;51070;52.236;-0.892;2023-11-22T11:41:16;101982.19;;;10.22;93.14
62928;BME280;51070;52.236;-0.892;2023-11-22T11:43:42;101979.05;;;10.16;92.93
62928;BME280;51070;52.236;-0.892;2023-11-22T11:46:08;101974.73;;;10.12;93.24
62928;BME280;51070;52.236;-0.892;2023-11-22T11:48:34;101974.60;;;10.13;93.29
62928;BME280;51070;52.236;-0.892;2023-11-22T11:51:00;101954.58;;;10.13;92.03
62928;BME280;51070;52.236;-0.892;2023-11-22T11:53:26;101941.00;;;10.11;91.02
62928;BME280;51070;52.236;-0.892;2023-11-22T11:55:51;101937.79;;;10.13;91.00
62928;BME280;51070;52.236;-0.892;2023-11-22T11:58:18;101935.20;;;10.19;91.41
62928;BME280;51070;52.236;-0.892;2023-11-22T12:00:44;101945.56;;;10.28;91.49
62928;BME280;51070;52.236;-0.892;2023-11-22T12:03:09;101952.36;;;10.39;91.14
62928;BME280;51070;52.236;-0.892;2023-11-22T12:05:35;101946.91;;;10.51;91.10
62928;BME280;51070;52.236;-0.892;2023-11-22T12:08:01;101936.16;;;10.60;90.44
62928;BME280;51070;52.236;-0.892;2023-11-22T12:10:27;101934.70;;;10.69;90.38
62928;BME280;51070;52.236;-0.892;2023-11-22T12:12:53;101932.56;;;10.78;89.87
62928;BME280;51070;52.236;-0.892;2023-11-22T12:15:18;101922.56;;;10.82;88.93
62928;BME280;51070;52.236;-0.892;2023-11-22T12:17:44;101921.05;;;10.86;89.63
62928;BME280;51070;52.236;-0.892;2023-11-22T12:20:13;101924.33;;;10.89;89.36
62928;BME280;51070;52.236;-0.892;2023-11-22T12:22:40;101927.38;;;10.91;89.79
62928;BME280;51070;52.236;-0.892;2023-11-22T12:25:06;101912.55;;;10.96;90.35
62928;BME280;51070;52.236;-0.892;2023-11-22T12:27:32;101910.79;;;10.99;89.99
62928;BME280;51070;52.236;-0.892;2023-11-22T12:29:57;101900.48;;;10.97;89.58
62928;BME280;51070;52.236;-0.892;2023-11-22T12:32:26;101890.20;;;10.91;89.32
62928;BME280;51070;52.236;-0.892;2023-11-22T12:34:51;101877.52;;;10.83;89.49
62928;BME280;51070;52.236;-0.892;2023-11-22T12:37:21;101871.35;;;10.77;90.08
62928;BME280;51070;52.236;-0.892;2023-11-22T12:39:48;101872.27;;;10.72;90.12